EAF101P LBWN-LBSF

Flight info

Callsign EAF101P
Flight time N/A
Altitude 36000
Route DICXA T343 UMPIT
Aircraft A320/M-SDE3FGHIRWY/LB1

Departure

Time N/A
Airport Varna Airport (LBWN)

Arrival

Time 2026-05-03 20:50
Airport Sofia Airport (LBSF)
Time Latitude Longitude Altitude Speed Heading
2026-05-03 20:15 43.17836 27.23759 18581 ft 401 kts 261°
2026-05-03 20:15 43.17397 27.19974 19371 ft 403 kts 261°
2026-05-03 20:15 43.16957 27.16172 20176 ft 405 kts 261°
2026-05-03 20:15 43.16513 27.12358 21004 ft 406 kts 260°
2026-05-03 20:16 43.16071 27.08591 21808 ft 407 kts 259°
2026-05-03 20:16 43.15618 27.04760 22600 ft 408 kts 259°
2026-05-03 20:16 43.15163 27.00920 23389 ft 409 kts 259°
2026-05-03 20:16 43.14699 26.97014 24060 ft 411 kts 259°
2026-05-03 20:17 43.14242 26.93182 24590 ft 415 kts 258°
2026-05-03 20:17 43.13774 26.89258 25089 ft 420 kts 258°
2026-05-03 20:17 43.13300 26.85296 25578 ft 424 kts 258°
2026-05-03 20:17 43.12821 26.81289 26053 ft 429 kts 258°
2026-05-03 20:18 43.12338 26.77243 26536 ft 433 kts 258°
2026-05-03 20:18 43.11848 26.73147 27005 ft 438 kts 258°
2026-05-03 20:18 43.11350 26.69004 27458 ft 444 kts 259°
2026-05-03 20:18 43.10842 26.64797 27801 ft 451 kts 259°
2026-05-03 20:19 43.10323 26.60537 28214 ft 456 kts 259°
2026-05-03 20:19 43.09796 26.56240 28647 ft 460 kts 259°
2026-05-03 20:19 43.09261 26.51900 29088 ft 464 kts 259°
2026-05-03 20:19 43.08723 26.47532 29520 ft 468 kts 259°
2026-05-03 20:20 43.08183 26.43130 29943 ft 471 kts 259°
2026-05-03 20:20 43.07638 26.38691 30328 ft 475 kts 259°
2026-05-03 20:20 43.07090 26.34235 30727 ft 476 kts 259°
2026-05-03 20:20 43.06536 26.29772 31220 ft 475 kts 259°
2026-05-03 20:21 43.05981 26.25321 31701 ft 475 kts 259°
2026-05-03 20:21 43.05421 26.20866 32115 ft 477 kts 261°
2026-05-03 20:21 43.04857 26.16392 32517 ft 479 kts 261°
2026-05-03 20:21 43.04290 26.11904 32982 ft 479 kts 261°
2026-05-03 20:22 43.03721 26.07417 33470 ft 479 kts 261°
2026-05-03 20:22 43.03153 26.02928 33959 ft 479 kts 261°
2026-05-03 20:22 43.02584 25.98441 34405 ft 479 kts 261°
2026-05-03 20:22 43.02011 25.93960 34823 ft 479 kts 261°
2026-05-03 20:23 43.01433 25.89483 35254 ft 478 kts 261°
2026-05-03 20:23 43.00854 25.85008 35673 ft 478 kts 261°
2026-05-03 20:23 43.00278 25.80534 36042 ft 479 kts 261°
2026-05-03 20:23 42.99701 25.76056 36156 ft 479 kts 261°
2026-05-03 20:24 42.99121 25.71572 36186 ft 480 kts 261°
2026-05-03 20:24 42.97962 25.62662 36032 ft 478 kts 261°
2026-05-03 20:24 42.97376 25.58199 35242 ft 478 kts 261°
2026-05-03 20:25 42.96785 25.53733 34387 ft 479 kts 262°
2026-05-03 20:25 42.96193 25.49247 33408 ft 480 kts 262°
2026-05-03 20:25 42.95602 25.44757 32399 ft 481 kts 261°
2026-05-03 20:25 42.95009 25.40261 31399 ft 482 kts 261°
2026-05-03 20:26 42.94411 25.35756 30373 ft 483 kts 261°
2026-05-03 20:26 42.93808 25.31243 29102 ft 484 kts 261°
2026-05-03 20:26 42.93202 25.26727 27896 ft 484 kts 261°
2026-05-03 20:26 42.92597 25.22246 27042 ft 476 kts 261°
2026-05-03 20:27 42.91999 25.17841 26167 ft 469 kts 261°
2026-05-03 20:27 42.91408 25.13489 25317 ft 463 kts 262°
2026-05-03 20:27 42.90826 25.09198 24514 ft 458 kts 262°
2026-05-03 20:27 42.90249 25.04958 23728 ft 452 kts 262°
2026-05-03 20:28 42.89677 25.00757 22847 ft 447 kts 262°
2026-05-03 20:28 42.89110 24.96616 22039 ft 442 kts 262°
2026-05-03 20:28 42.88548 24.92524 21262 ft 436 kts 262°
2026-05-03 20:28 42.87993 24.88486 20488 ft 431 kts 262°
2026-05-03 20:29 42.87442 24.84488 19711 ft 428 kts 262°
2026-05-03 20:29 42.86894 24.80519 18991 ft 424 kts 262°
2026-05-03 20:29 42.86350 24.76597 18254 ft 419 kts 262°
2026-05-03 20:29 42.85810 24.72710 17502 ft 415 kts 262°
2026-05-03 20:30 42.85277 24.68875 16791 ft 410 kts 262°
2026-05-03 20:30 42.84757 24.65135 16118 ft 405 kts 261°
2026-05-03 20:30 42.84233 24.61382 15464 ft 401 kts 262°
2026-05-03 20:30 42.83713 24.57674 14830 ft 396 kts 262°
2026-05-03 20:31 42.83197 24.54005 14192 ft 392 kts 261°
2026-05-03 20:31 42.82683 24.50376 13469 ft 388 kts 261°
2026-05-03 20:31 42.82175 24.46783 12748 ft 384 kts 261°
2026-05-03 20:31 42.81669 24.43224 12250 ft 383 kts 261°
2026-05-03 20:32 42.81225 24.39648 12266 ft 383 kts 268°
2026-05-03 20:32 42.81176 24.36029 12267 ft 382 kts 272°
2026-05-03 20:32 42.81164 24.32405 12268 ft 382 kts 272°
2026-05-03 20:32 42.81151 24.28785 12266 ft 383 kts 272°
2026-05-03 20:33 42.81137 24.25164 12255 ft 382 kts 272°
2026-05-03 20:33 42.81121 24.21546 12254 ft 382 kts 272°
2026-05-03 20:33 42.81105 24.17926 12252 ft 383 kts 272°
2026-05-03 20:33 42.81087 24.14301 12254 ft 383 kts 272°
2026-05-03 20:34 42.81068 24.10710 11848 ft 375 kts 272°
2026-05-03 20:34 42.81048 24.07224 11403 ft 364 kts 272°
2026-05-03 20:34 42.81029 24.03805 10799 ft 358 kts 271°
2026-05-03 20:34 42.81010 24.00433 10125 ft 355 kts 271°
2026-05-03 20:35 42.80990 23.97085 9405 ft 352 kts 271°
2026-05-03 20:35 42.80969 23.93766 8707 ft 349 kts 271°
2026-05-03 20:35 42.80948 23.90482 8092 ft 345 kts 271°
2026-05-03 20:35 42.80925 23.87236 7465 ft 341 kts 271°
2026-05-03 20:36 42.80902 23.84030 6812 ft 337 kts 271°
2026-05-03 20:36 42.80880 23.80852 6231 ft 333 kts 271°
2026-05-03 20:36 42.80858 23.77707 6039 ft 332 kts 271°
2026-05-03 20:36 42.80833 23.74568 6046 ft 331 kts 271°
2026-05-03 20:37 42.80806 23.71431 5831 ft 331 kts 269°
2026-05-03 20:37 42.80774 23.68286 6051 ft 331 kts 270°
2026-05-03 20:37 42.80738 23.65153 5820 ft 331 kts 270°
2026-05-03 20:37 42.80702 23.62030 6045 ft 331 kts 271°
2026-05-03 20:38 42.80670 23.58931 6034 ft 333 kts 271°
2026-05-03 20:38 42.80642 23.55781 6028 ft 332 kts 271°
2026-05-03 20:38 42.80616 23.52635 6025 ft 333 kts 271°
2026-05-03 20:38 42.80587 23.49529 6027 ft 316 kts 271°
2026-05-03 20:39 42.80556 23.46654 6027 ft 292 kts 271°
2026-05-03 20:39 42.80526 23.44000 6030 ft 270 kts 271°
2026-05-03 20:39 42.80499 23.41540 6009 ft 250 kts 271°
2026-05-03 20:39 42.80474 23.39243 6012 ft 239 kts 271°
2026-05-03 20:40 42.80449 23.36989 6012 ft 238 kts 271°
2026-05-03 20:40 42.80425 23.34741 6013 ft 237 kts 271°
2026-05-03 20:40 42.80400 23.32501 6015 ft 237 kts 271°
2026-05-03 20:40 42.80373 23.30256 6014 ft 237 kts 271°
2026-05-03 20:41 42.80343 23.28015 6014 ft 237 kts 271°
2026-05-03 20:41 42.80313 23.25772 6007 ft 237 kts 271°
2026-05-03 20:41 42.80283 23.23528 6012 ft 237 kts 271°
2026-05-03 20:41 42.80252 23.21343 6036 ft 221 kts 271°
2026-05-03 20:42 42.80223 23.19334 6018 ft 207 kts 271°
2026-05-03 20:42 42.80198 23.17384 6013 ft 205 kts 271°
2026-05-03 20:42 42.80173 23.15444 6013 ft 205 kts 271°
2026-05-03 20:42 42.80147 23.13507 6013 ft 205 kts 271°
2026-05-03 20:43 42.80092 23.11567 6014 ft 206 kts 264°
2026-05-03 20:43 42.79684 23.09702 6016 ft 207 kts 245°
2026-05-03 20:43 42.78866 23.08092 6017 ft 208 kts 226°
2026-05-03 20:43 42.77724 23.06903 6019 ft 207 kts 207°
2026-05-03 20:44 42.76379 23.06264 6016 ft 204 kts 187°
2026-05-03 20:44 42.74975 23.06253 6020 ft 201 kts 167°
2026-05-03 20:44 42.73665 23.06845 6016 ft 197 kts 148°
2026-05-03 20:44 42.72585 23.07937 6016 ft 192 kts 130°
2026-05-03 20:45 42.71823 23.09399 6018 ft 188 kts 112°
2026-05-03 20:45 42.71438 23.11075 5954 ft 185 kts 95°
2026-05-03 20:45 42.71331 23.12805 5774 ft 181 kts 91°
2026-05-03 20:45 42.71236 23.14486 5531 ft 177 kts 91°
2026-05-03 20:46 42.71174 23.15585 5376 ft 175 kts 91°
2026-05-03 20:46 42.71049 23.17769 5067 ft 175 kts 91°
2026-05-03 20:46 42.70954 23.19417 4825 ft 175 kts 91°
2026-05-03 20:46 42.70859 23.21061 4584 ft 175 kts 93°
2026-05-03 20:47 42.70766 23.22658 4362 ft 167 kts 93°
2026-05-03 20:47 42.70676 23.24214 4108 ft 165 kts 93°
2026-05-03 20:47 42.70615 23.25261 3938 ft 164 kts 92°
2026-05-03 20:47 42.70525 23.26811 3685 ft 164 kts 94°
2026-05-03 20:48 42.70437 23.28323 3444 ft 158 kts 94°
2026-05-03 20:48 42.70350 23.29802 3211 ft 156 kts 94°
2026-05-03 20:48 42.70264 23.31269 3024 ft 155 kts 94°
2026-05-03 20:48 42.70178 23.32726 2828 ft 154 kts 94°
2026-05-03 20:49 42.70092 23.34174 2640 ft 154 kts 94°
2026-05-03 20:49 42.70006 23.35617 2434 ft 152 kts 94°
2026-05-03 20:49 42.69921 23.37030 2223 ft 151 kts 94°
2026-05-03 20:49 42.69835 23.38452 2018 ft 151 kts 94°
2026-05-03 20:50 42.69751 23.39867 1805 ft 150 kts 94°
2026-05-03 20:50 42.69676 23.41225 1752 ft 130 kts 94°
2026-05-03 20:50 42.69621 23.42205 1744 ft 69 kts 94°
2026-05-03 20:50 42.69527 23.42662 1742 ft 34 kts 124°
2026-05-03 20:51 42.69455 23.42746 1748 ft 1 kts 170°
2026-05-03 20:51 42.69452 23.42747 1747 ft 1 kts 170°
2026-05-03 20:51 42.69444 23.42747 1747 ft 2 kts 179°
2026-05-03 20:51 42.69405 23.42657 1749 ft 23 kts 270°
2026-05-03 20:52 42.69410 23.42410 1745 ft 22 kts 269°
2026-05-03 20:52 42.69419 23.42194 1748 ft 24 kts 281°
2026-05-03 20:52 42.69442 23.41955 1751 ft 27 kts 275°
2026-05-03 20:52 42.69460 23.41693 1750 ft 26 kts 276°
2026-05-03 20:53 42.69477 23.41469 1750 ft 17 kts 275°
2026-05-03 20:53 42.69479 23.41289 1743 ft 18 kts 277°
2026-05-03 20:53 42.69417 23.41203 1750 ft 12 kts 192°
2026-05-03 20:53 42.69339 23.41179 1746 ft 11 kts 192°
2026-05-03 20:54 42.69263 23.41157 1750 ft 11 kts 192°
2026-05-03 20:54 42.69123 23.41191 1746 ft 10 kts 162°
2026-05-03 20:54 42.69097 23.41223 1749 ft 4 kts 89°
2026-05-03 20:55 42.69103 23.41254 1750 ft 3 kts 73°
2026-05-03 20:55 42.69109 23.41276 1745 ft 2 kts 72°
2026-05-03 20:55 42.69110 23.41282 1746 ft 0 kts 72°
2026-05-03 20:55 42.69110 23.41283 1747 ft 0 kts 72°